BAW7R LGAV-LIRF
Flight info
| Callsign | BAW7R |
|---|---|
| Flight time | 1h 42m |
| Altitude | 40000 |
| Route | KOR1N KOR UL53 IXONI DCT OLGAT DCT TOPNO DCT DOGUS DCT EKTOL DCT AMSOR DCT IPKAM DCT TEA DCT SIPRO DCT LAT LAT3A |
| Aircraft | A35K/H-SBDE1E2E3GHIJ1J3J4J5J6M1M2P2RWXYZ/LB1D1 |
Departure
| Time | 2026-05-07 20:18 |
|---|---|
| Airport | Athens Eleftherios Venizelos International Airport (LGAV) |
Arrival
| Time | 2026-05-07 22:01 |
|---|---|
| Airport | Rome–Fiumicino Leonardo da Vinci International Airport (LIRF) |
| Time | Latitude | Longitude | Altitude | Speed | Heading |
|---|---|---|---|---|---|
| 2026-05-07 20:00 | 37.94115 | 23.95436 | 284 ft | 0 kts | 200° |
| 2026-05-07 20:10 | 37.94131 | 23.95443 | 284 ft | 4 kts | 194° |
| 2026-05-07 20:10 | 37.94158 | 23.95450 | 292 ft | 4 kts | 188° |
| 2026-05-07 20:10 | 37.94175 | 23.95453 | 291 ft | 0 kts | 189° |
| 2026-05-07 20:14 | 37.94164 | 23.95455 | 294 ft | 6 kts | 169° |
| 2026-05-07 20:14 | 37.94143 | 23.95515 | 284 ft | 10 kts | 99° |
| 2026-05-07 20:14 | 37.94162 | 23.95611 | 283 ft | 14 kts | 51° |
| 2026-05-07 20:14 | 37.94245 | 23.95701 | 282 ft | 18 kts | 39° |
| 2026-05-07 20:15 | 37.94340 | 23.95822 | 281 ft | 21 kts | 62° |
| 2026-05-07 20:15 | 37.94408 | 23.95996 | 279 ft | 24 kts | 44° |
| 2026-05-07 20:15 | 37.94552 | 23.96125 | 278 ft | 27 kts | 37° |
| 2026-05-07 20:15 | 37.94685 | 23.96270 | 276 ft | 26 kts | 33° |
| 2026-05-07 20:16 | 37.94800 | 23.96375 | 275 ft | 28 kts | 37° |
| 2026-05-07 20:16 | 37.94963 | 23.96530 | 273 ft | 31 kts | 37° |
| 2026-05-07 20:16 | 37.95142 | 23.96699 | 271 ft | 33 kts | 37° |
| 2026-05-07 20:16 | 37.95332 | 23.96880 | 269 ft | 27 kts | 37° |
| 2026-05-07 20:17 | 37.95375 | 23.96972 | 268 ft | 1 kts | 100° |
| 2026-05-07 20:17 | 37.95328 | 23.97018 | 268 ft | 13 kts | 162° |
| 2026-05-07 20:17 | 37.95230 | 23.97041 | 269 ft | 14 kts | 194° |
| 2026-05-07 20:17 | 37.95179 | 23.97004 | 271 ft | 0 kts | 218° |
| 2026-05-07 20:18 | 37.95162 | 23.96987 | 271 ft | 17 kts | 218° |
| 2026-05-07 20:18 | 37.94845 | 23.96684 | 275 ft | 98 kts | 217° |
| 2026-05-07 20:18 | 37.94102 | 23.95983 | 283 ft | 166 kts | 217° |
| 2026-05-07 20:18 | 37.93138 | 23.95089 | 1022 ft | 170 kts | 213° |
| 2026-05-07 20:19 | 37.92073 | 23.94412 | 1899 ft | 181 kts | 204° |
| 2026-05-07 20:19 | 37.90838 | 23.93693 | 2353 ft | 210 kts | 205° |
| 2026-05-07 20:19 | 37.89483 | 23.92834 | 3067 ft | 225 kts | 206° |
| 2026-05-07 20:19 | 37.88146 | 23.91650 | 3732 ft | 244 kts | 223° |
| 2026-05-07 20:20 | 37.87197 | 23.89808 | 4435 ft | 260 kts | 250° |
| 2026-05-07 20:20 | 37.87031 | 23.87492 | 5304 ft | 269 kts | 271° |
| 2026-05-07 20:20 | 37.87183 | 23.85121 | 6326 ft | 271 kts | 275° |
| 2026-05-07 20:20 | 37.87366 | 23.82757 | 7411 ft | 269 kts | 274° |
| 2026-05-07 20:21 | 37.87540 | 23.80387 | 8487 ft | 272 kts | 274° |
| 2026-05-07 20:21 | 37.87709 | 23.77996 | 9567 ft | 274 kts | 274° |
| 2026-05-07 20:21 | 37.87873 | 23.75602 | 10568 ft | 279 kts | 274° |
| 2026-05-07 20:21 | 37.88044 | 23.73062 | 11094 ft | 302 kts | 274° |
| 2026-05-07 20:22 | 37.88228 | 23.70293 | 11467 ft | 327 kts | 274° |
| 2026-05-07 20:22 | 37.88356 | 23.68357 | 11824 ft | 337 kts | 274° |
| 2026-05-07 20:22 | 37.88553 | 23.65366 | 12678 ft | 343 kts | 274° |
| 2026-05-07 20:22 | 37.88751 | 23.62350 | 13657 ft | 345 kts | 274° |
| 2026-05-07 20:23 | 37.88950 | 23.59310 | 14544 ft | 349 kts | 274° |
| 2026-05-07 20:23 | 37.89151 | 23.56225 | 15316 ft | 355 kts | 274° |
| 2026-05-07 20:23 | 37.89354 | 23.53089 | 16094 ft | 361 kts | 274° |
| 2026-05-07 20:23 | 37.89559 | 23.49902 | 16893 ft | 366 kts | 275° |
| 2026-05-07 20:24 | 37.89767 | 23.46663 | 17674 ft | 371 kts | 274° |
| 2026-05-07 20:24 | 37.89977 | 23.43378 | 18451 ft | 376 kts | 275° |
| 2026-05-07 20:24 | 37.90189 | 23.40054 | 19144 ft | 381 kts | 275° |
| 2026-05-07 20:24 | 37.90401 | 23.36698 | 19892 ft | 384 kts | 275° |
| 2026-05-07 20:25 | 37.90614 | 23.33318 | 20679 ft | 387 kts | 275° |
| 2026-05-07 20:25 | 37.90827 | 23.29911 | 21460 ft | 390 kts | 275° |
| 2026-05-07 20:25 | 37.91042 | 23.26472 | 22247 ft | 393 kts | 275° |
| 2026-05-07 20:25 | 37.91258 | 23.23010 | 23015 ft | 397 kts | 275° |
| 2026-05-07 20:26 | 37.91474 | 23.19506 | 23778 ft | 401 kts | 275° |
| 2026-05-07 20:26 | 37.91691 | 23.15983 | 24448 ft | 403 kts | 275° |
| 2026-05-07 20:26 | 37.91908 | 23.12441 | 25192 ft | 403 kts | 276° |
| 2026-05-07 20:26 | 37.92124 | 23.08898 | 25926 ft | 404 kts | 275° |
| 2026-05-07 20:27 | 37.92340 | 23.05341 | 26608 ft | 406 kts | 275° |
| 2026-05-07 20:27 | 37.92555 | 23.01772 | 27291 ft | 407 kts | 276° |
| 2026-05-07 20:27 | 37.92840 | 22.98208 | 28019 ft | 407 kts | 280° |
| 2026-05-07 20:27 | 37.93462 | 22.94717 | 28722 ft | 406 kts | 288° |
| 2026-05-07 20:28 | 37.94504 | 22.91386 | 29406 ft | 408 kts | 295° |
| 2026-05-07 20:28 | 37.95875 | 22.88225 | 30072 ft | 411 kts | 300° |
| 2026-05-07 20:28 | 37.97424 | 22.85203 | 30474 ft | 417 kts | 302° |
| 2026-05-07 20:28 | 37.99103 | 22.82190 | 30933 ft | 420 kts | 303° |
| 2026-05-07 20:29 | 38.00830 | 22.79179 | 31444 ft | 421 kts | 304° |
| 2026-05-07 20:29 | 38.02555 | 22.76169 | 31926 ft | 423 kts | 303° |
| 2026-05-07 20:29 | 38.04275 | 22.73129 | 32368 ft | 425 kts | 303° |
| 2026-05-07 20:29 | 38.05983 | 22.70070 | 32793 ft | 426 kts | 303° |
| 2026-05-07 20:30 | 38.07694 | 22.66980 | 33198 ft | 428 kts | 302° |
| 2026-05-07 20:30 | 38.09395 | 22.63884 | 33697 ft | 427 kts | 302° |
| 2026-05-07 20:30 | 38.11087 | 22.60792 | 34306 ft | 423 kts | 302° |
| 2026-05-07 20:30 | 38.12756 | 22.57734 | 34893 ft | 418 kts | 302° |
| 2026-05-07 20:31 | 38.14383 | 22.54750 | 35463 ft | 414 kts | 302° |
| 2026-05-07 20:31 | 38.16015 | 22.51756 | 36025 ft | 410 kts | 303° |
| 2026-05-07 20:31 | 38.17632 | 22.48788 | 36516 ft | 407 kts | 303° |
| 2026-05-07 20:31 | 38.19237 | 22.45841 | 36997 ft | 404 kts | 303° |
| 2026-05-07 20:32 | 38.20832 | 22.42910 | 37400 ft | 403 kts | 302° |
| 2026-05-07 20:32 | 38.22419 | 22.39992 | 37806 ft | 401 kts | 303° |
| 2026-05-07 20:32 | 38.23997 | 22.37087 | 38251 ft | 398 kts | 303° |
| 2026-05-07 20:32 | 38.25571 | 22.34187 | 38677 ft | 396 kts | 303° |
| 2026-05-07 20:33 | 38.27127 | 22.31319 | 39023 ft | 394 kts | 303° |
| 2026-05-07 20:33 | 38.28685 | 22.28443 | 39198 ft | 396 kts | 303° |
| 2026-05-07 20:33 | 38.30251 | 22.25549 | 39371 ft | 398 kts | 302° |
| 2026-05-07 20:33 | 38.31824 | 22.22641 | 39529 ft | 399 kts | 302° |
| 2026-05-07 20:34 | 38.33470 | 22.19773 | 39708 ft | 401 kts | 305° |
| 2026-05-07 20:34 | 38.35207 | 22.16991 | 39926 ft | 402 kts | 307° |
| 2026-05-07 20:34 | 38.36990 | 22.14229 | 40037 ft | 405 kts | 307° |
| 2026-05-07 20:35 | 38.40585 | 22.08659 | 40128 ft | 406 kts | 306° |
| 2026-05-07 20:35 | 38.44111 | 22.03086 | 40132 ft | 406 kts | 306° |
| 2026-05-07 20:36 | 38.47629 | 21.97452 | 40125 ft | 406 kts | 306° |
| 2026-05-07 20:36 | 38.51145 | 21.91792 | 40124 ft | 407 kts | 306° |
| 2026-05-07 20:37 | 38.54665 | 21.86120 | 40127 ft | 407 kts | 306° |
| 2026-05-07 20:37 | 38.58182 | 21.80449 | 40132 ft | 406 kts | 306° |
| 2026-05-07 20:38 | 38.61689 | 21.74784 | 40124 ft | 406 kts | 305° |
| 2026-05-07 20:38 | 38.65181 | 21.69124 | 40123 ft | 406 kts | 305° |
| 2026-05-07 20:39 | 38.68652 | 21.63477 | 40119 ft | 405 kts | 304° |
| 2026-05-07 20:39 | 38.72141 | 21.57787 | 40135 ft | 406 kts | 305° |
| 2026-05-07 20:40 | 38.75635 | 21.52117 | 40123 ft | 405 kts | 305° |
| 2026-05-07 20:40 | 38.79129 | 21.46443 | 40122 ft | 405 kts | 305° |
| 2026-05-07 20:41 | 38.82608 | 21.40769 | 40119 ft | 405 kts | 305° |
| 2026-05-07 20:41 | 38.86083 | 21.35078 | 40121 ft | 404 kts | 305° |
| 2026-05-07 20:42 | 38.89535 | 21.29421 | 40117 ft | 404 kts | 304° |
| 2026-05-07 20:42 | 38.93014 | 21.23711 | 40133 ft | 405 kts | 304° |
| 2026-05-07 20:43 | 38.96477 | 21.18018 | 40115 ft | 403 kts | 304° |
| 2026-05-07 20:43 | 38.99926 | 21.12336 | 40114 ft | 404 kts | 304° |
| 2026-05-07 20:44 | 39.03379 | 21.06636 | 40117 ft | 404 kts | 304° |
| 2026-05-07 20:44 | 39.06836 | 21.00919 | 40121 ft | 404 kts | 304° |
| 2026-05-07 20:45 | 39.10288 | 20.95202 | 40116 ft | 404 kts | 304° |
| 2026-05-07 20:45 | 39.13717 | 20.89514 | 40116 ft | 404 kts | 304° |
| 2026-05-07 20:46 | 39.17160 | 20.83790 | 40115 ft | 405 kts | 304° |
| 2026-05-07 20:46 | 39.20612 | 20.78043 | 40110 ft | 405 kts | 303° |
| 2026-05-07 20:47 | 39.24060 | 20.72291 | 40109 ft | 406 kts | 303° |
| 2026-05-07 20:47 | 39.27509 | 20.66525 | 40098 ft | 405 kts | 303° |
| 2026-05-07 20:48 | 39.30946 | 20.60768 | 40108 ft | 405 kts | 303° |
| 2026-05-07 20:48 | 39.34385 | 20.54999 | 40096 ft | 405 kts | 303° |
| 2026-05-07 20:49 | 39.37792 | 20.49277 | 40103 ft | 404 kts | 303° |
| 2026-05-07 20:49 | 39.41221 | 20.43507 | 40089 ft | 405 kts | 302° |
| 2026-05-07 20:50 | 39.44584 | 20.37833 | 40100 ft | 405 kts | 302° |
| 2026-05-07 20:50 | 39.48068 | 20.31945 | 40082 ft | 406 kts | 302° |
| 2026-05-07 20:51 | 39.51499 | 20.26138 | 40084 ft | 406 kts | 302° |
| 2026-05-07 20:51 | 39.54926 | 20.20328 | 40073 ft | 406 kts | 302° |
| 2026-05-07 20:52 | 39.58327 | 20.14549 | 40083 ft | 405 kts | 302° |
| 2026-05-07 20:52 | 39.61745 | 20.08732 | 40076 ft | 406 kts | 302° |
| 2026-05-07 20:53 | 39.65163 | 20.02901 | 40075 ft | 406 kts | 302° |
| 2026-05-07 20:53 | 39.68580 | 19.97065 | 40075 ft | 406 kts | 302° |
| 2026-05-07 20:54 | 39.71997 | 19.91218 | 40074 ft | 406 kts | 302° |
| 2026-05-07 20:54 | 39.75410 | 19.85366 | 40075 ft | 407 kts | 302° |
| 2026-05-07 20:55 | 39.78824 | 19.79503 | 40079 ft | 406 kts | 301° |
| 2026-05-07 20:55 | 39.82236 | 19.73633 | 40068 ft | 406 kts | 301° |
| 2026-05-07 20:56 | 39.85642 | 19.67759 | 40064 ft | 406 kts | 301° |
| 2026-05-07 20:56 | 39.89030 | 19.61907 | 40061 ft | 407 kts | 301° |
| 2026-05-07 20:57 | 39.92435 | 19.56012 | 40062 ft | 407 kts | 301° |
| 2026-05-07 20:57 | 39.95843 | 19.50104 | 40055 ft | 407 kts | 301° |
| 2026-05-07 20:58 | 39.99247 | 19.44191 | 40055 ft | 407 kts | 301° |
| 2026-05-07 20:58 | 40.02648 | 19.38271 | 40048 ft | 408 kts | 301° |
| 2026-05-07 20:59 | 40.06029 | 19.32376 | 40048 ft | 408 kts | 301° |
| 2026-05-07 20:59 | 40.09429 | 19.26437 | 40048 ft | 408 kts | 301° |
| 2026-05-07 21:00 | 40.12825 | 19.20494 | 40044 ft | 408 kts | 300° |
| 2026-05-07 21:00 | 40.16216 | 19.14549 | 40068 ft | 408 kts | 300° |
| 2026-05-07 21:01 | 40.19611 | 19.08581 | 40044 ft | 410 kts | 300° |
| 2026-05-07 21:01 | 40.22977 | 19.02543 | 40042 ft | 408 kts | 296° |
| 2026-05-07 21:02 | 40.25481 | 18.95976 | 40041 ft | 400 kts | 286° |
| 2026-05-07 21:02 | 40.27349 | 18.89124 | 40039 ft | 399 kts | 285° |
| 2026-05-07 21:03 | 40.29108 | 18.82228 | 40043 ft | 399 kts | 284° |
| 2026-05-07 21:03 | 40.30860 | 18.75329 | 40049 ft | 399 kts | 284° |
| 2026-05-07 21:04 | 40.32623 | 18.68432 | 40042 ft | 398 kts | 284° |
| 2026-05-07 21:04 | 40.34371 | 18.61598 | 40042 ft | 398 kts | 284° |
| 2026-05-07 21:05 | 40.36127 | 18.54720 | 40044 ft | 398 kts | 284° |
| 2026-05-07 21:05 | 40.37882 | 18.47824 | 40043 ft | 398 kts | 284° |
| 2026-05-07 21:06 | 40.39631 | 18.40931 | 40042 ft | 398 kts | 283° |
| 2026-05-07 21:06 | 40.41373 | 18.34043 | 40043 ft | 398 kts | 283° |
| 2026-05-07 21:07 | 40.43114 | 18.27138 | 40046 ft | 398 kts | 283° |
| 2026-05-07 21:07 | 40.44847 | 18.20244 | 40045 ft | 398 kts | 283° |
| 2026-05-07 21:08 | 40.46567 | 18.13386 | 40043 ft | 398 kts | 283° |
| 2026-05-07 21:08 | 40.48293 | 18.06486 | 40044 ft | 398 kts | 283° |
| 2026-05-07 21:09 | 40.50016 | 17.99577 | 40044 ft | 398 kts | 283° |
| 2026-05-07 21:09 | 40.51444 | 17.93834 | 40046 ft | 398 kts | 283° |
| 2026-05-07 21:10 | 40.53159 | 17.86919 | 40047 ft | 398 kts | 283° |
| 2026-05-07 21:10 | 40.54869 | 17.80007 | 40031 ft | 398 kts | 283° |
| 2026-05-07 21:11 | 40.56577 | 17.73080 | 40045 ft | 398 kts | 283° |
| 2026-05-07 21:11 | 40.59124 | 17.62706 | 40034 ft | 397 kts | 283° |
| 2026-05-07 21:12 | 40.60805 | 17.55839 | 40034 ft | 397 kts | 283° |
| 2026-05-07 21:12 | 40.62494 | 17.48920 | 40034 ft | 397 kts | 282° |
| 2026-05-07 21:13 | 40.64180 | 17.41994 | 40031 ft | 397 kts | 282° |
| 2026-05-07 21:13 | 40.65860 | 17.35069 | 40033 ft | 397 kts | 282° |
| 2026-05-07 21:14 | 40.67538 | 17.28131 | 40053 ft | 398 kts | 282° |
| 2026-05-07 21:14 | 40.69216 | 17.21178 | 40031 ft | 398 kts | 282° |
| 2026-05-07 21:15 | 40.70890 | 17.14221 | 40031 ft | 398 kts | 282° |
| 2026-05-07 21:15 | 40.72546 | 17.07312 | 40027 ft | 398 kts | 282° |
| 2026-05-07 21:16 | 40.74212 | 17.00342 | 40019 ft | 399 kts | 281° |
| 2026-05-07 21:16 | 40.75879 | 16.93340 | 40019 ft | 400 kts | 281° |
| 2026-05-07 21:17 | 40.77546 | 16.86329 | 40026 ft | 400 kts | 281° |
| 2026-05-07 21:17 | 40.79206 | 16.79322 | 40010 ft | 400 kts | 281° |
| 2026-05-07 21:18 | 40.80866 | 16.72295 | 40011 ft | 400 kts | 281° |
| 2026-05-07 21:18 | 40.82520 | 16.65265 | 40004 ft | 402 kts | 281° |
| 2026-05-07 21:19 | 40.84169 | 16.58230 | 39994 ft | 404 kts | 281° |
| 2026-05-07 21:19 | 40.85830 | 16.51137 | 39993 ft | 404 kts | 281° |
| 2026-05-07 21:20 | 40.87486 | 16.44039 | 39993 ft | 404 kts | 281° |
| 2026-05-07 21:20 | 40.89139 | 16.36932 | 39997 ft | 404 kts | 281° |
| 2026-05-07 21:21 | 40.90789 | 16.29810 | 40000 ft | 407 kts | 281° |
| 2026-05-07 21:21 | 40.92444 | 16.22640 | 40002 ft | 408 kts | 281° |
| 2026-05-07 21:22 | 40.94101 | 16.15453 | 40003 ft | 409 kts | 281° |
| 2026-05-07 21:22 | 40.95727 | 16.08288 | 40009 ft | 408 kts | 279° |
| 2026-05-07 21:23 | 40.96992 | 16.01043 | 40007 ft | 406 kts | 277° |
| 2026-05-07 21:23 | 40.98136 | 15.93688 | 40013 ft | 408 kts | 277° |
| 2026-05-07 21:24 | 40.98977 | 15.88441 | 39998 ft | 409 kts | 277° |
| 2026-05-07 21:24 | 41.00202 | 15.81063 | 39994 ft | 410 kts | 277° |
| 2026-05-07 21:25 | 41.01440 | 15.73693 | 39996 ft | 410 kts | 277° |
| 2026-05-07 21:25 | 41.02682 | 15.66314 | 39998 ft | 410 kts | 278° |
| 2026-05-07 21:26 | 41.03916 | 15.58918 | 40005 ft | 414 kts | 278° |
| 2026-05-07 21:26 | 41.05156 | 15.51432 | 39997 ft | 417 kts | 278° |
| 2026-05-07 21:27 | 41.06398 | 15.43921 | 39985 ft | 417 kts | 278° |
| 2026-05-07 21:27 | 41.07627 | 15.36466 | 39985 ft | 417 kts | 278° |
| 2026-05-07 21:28 | 41.08858 | 15.28955 | 40002 ft | 417 kts | 278° |
| 2026-05-07 21:28 | 41.10086 | 15.21423 | 39991 ft | 420 kts | 278° |
| 2026-05-07 21:29 | 41.11325 | 15.13839 | 39993 ft | 421 kts | 278° |
| 2026-05-07 21:29 | 41.12574 | 15.06250 | 39990 ft | 421 kts | 278° |
| 2026-05-07 21:30 | 41.13818 | 14.98661 | 39986 ft | 421 kts | 278° |
| 2026-05-07 21:30 | 41.15054 | 14.91077 | 39994 ft | 421 kts | 278° |
| 2026-05-07 21:31 | 41.15673 | 14.87265 | 39839 ft | 423 kts | 278° |
| 2026-05-07 21:31 | 41.16290 | 14.83443 | 39599 ft | 424 kts | 278° |
| 2026-05-07 21:31 | 41.16893 | 14.79615 | 39358 ft | 423 kts | 277° |
| 2026-05-07 21:31 | 41.17477 | 14.75841 | 39140 ft | 422 kts | 277° |
| 2026-05-07 21:32 | 41.18065 | 14.72025 | 38917 ft | 422 kts | 277° |
| 2026-05-07 21:32 | 41.18653 | 14.68203 | 38677 ft | 421 kts | 277° |
| 2026-05-07 21:32 | 41.19238 | 14.64408 | 38395 ft | 420 kts | 277° |
| 2026-05-07 21:32 | 41.19829 | 14.60622 | 38119 ft | 420 kts | 277° |
| 2026-05-07 21:33 | 41.20427 | 14.56813 | 37849 ft | 422 kts | 277° |
| 2026-05-07 21:33 | 41.21029 | 14.52988 | 37573 ft | 423 kts | 277° |
| 2026-05-07 21:33 | 41.21632 | 14.49157 | 37291 ft | 425 kts | 277° |
| 2026-05-07 21:33 | 41.22236 | 14.45313 | 37030 ft | 426 kts | 277° |
| 2026-05-07 21:34 | 41.22840 | 14.41454 | 36759 ft | 428 kts | 278° |
| 2026-05-07 21:34 | 41.23445 | 14.37583 | 36490 ft | 429 kts | 277° |
| 2026-05-07 21:34 | 41.24051 | 14.33691 | 36226 ft | 430 kts | 278° |
| 2026-05-07 21:34 | 41.24656 | 14.29793 | 35969 ft | 432 kts | 278° |
| 2026-05-07 21:35 | 41.25264 | 14.25874 | 35721 ft | 433 kts | 278° |
| 2026-05-07 21:35 | 41.25870 | 14.21950 | 35469 ft | 434 kts | 278° |
| 2026-05-07 21:35 | 41.26477 | 14.18014 | 35080 ft | 433 kts | 278° |
| 2026-05-07 21:35 | 41.27080 | 14.14101 | 34358 ft | 432 kts | 278° |
| 2026-05-07 21:36 | 41.27682 | 14.10173 | 33493 ft | 434 kts | 278° |
| 2026-05-07 21:36 | 41.28282 | 14.06241 | 32623 ft | 435 kts | 278° |
| 2026-05-07 21:36 | 41.28891 | 14.02291 | 31796 ft | 436 kts | 279° |
| 2026-05-07 21:36 | 41.29746 | 13.98407 | 30953 ft | 440 kts | 287° |
| 2026-05-07 21:37 | 41.31051 | 13.94717 | 30308 ft | 443 kts | 296° |
| 2026-05-07 21:37 | 41.32666 | 13.91236 | 29624 ft | 442 kts | 299° |
| 2026-05-07 21:37 | 41.34358 | 13.87842 | 28973 ft | 439 kts | 301° |
| 2026-05-07 21:37 | 41.36081 | 13.84503 | 28379 ft | 436 kts | 301° |
| 2026-05-07 21:38 | 41.37805 | 13.81197 | 27743 ft | 434 kts | 301° |
| 2026-05-07 21:38 | 41.39530 | 13.77895 | 27104 ft | 433 kts | 301° |
| 2026-05-07 21:38 | 41.41237 | 13.74610 | 26480 ft | 429 kts | 301° |
| 2026-05-07 21:38 | 41.42912 | 13.71330 | 25866 ft | 425 kts | 299° |
| 2026-05-07 21:39 | 41.44247 | 13.67848 | 25300 ft | 419 kts | 288° |
| 2026-05-07 21:39 | 41.45033 | 13.64155 | 24724 ft | 413 kts | 279° |
| 2026-05-07 21:39 | 41.45568 | 13.60400 | 24146 ft | 411 kts | 277° |
| 2026-05-07 21:39 | 41.46055 | 13.56657 | 23576 ft | 409 kts | 277° |
| 2026-05-07 21:40 | 41.46532 | 13.52930 | 22946 ft | 406 kts | 277° |
| 2026-05-07 21:40 | 41.47003 | 13.49221 | 22349 ft | 404 kts | 277° |
| 2026-05-07 21:40 | 41.47462 | 13.45588 | 21792 ft | 402 kts | 277° |
| 2026-05-07 21:40 | 41.47923 | 13.41920 | 21216 ft | 400 kts | 277° |
| 2026-05-07 21:41 | 41.48381 | 13.38276 | 20631 ft | 396 kts | 277° |
| 2026-05-07 21:41 | 41.48840 | 13.34621 | 20057 ft | 394 kts | 277° |
| 2026-05-07 21:41 | 41.49289 | 13.31029 | 19484 ft | 391 kts | 277° |
| 2026-05-07 21:41 | 41.49733 | 13.27469 | 18906 ft | 389 kts | 277° |
| 2026-05-07 21:42 | 41.50173 | 13.23926 | 18326 ft | 385 kts | 277° |
| 2026-05-07 21:42 | 41.50609 | 13.20408 | 17799 ft | 380 kts | 277° |
| 2026-05-07 21:42 | 41.51032 | 13.17002 | 17661 ft | 363 kts | 277° |
| 2026-05-07 21:42 | 41.51429 | 13.13794 | 17548 ft | 347 kts | 277° |
| 2026-05-07 21:43 | 41.51814 | 13.10674 | 17445 ft | 332 kts | 277° |
| 2026-05-07 21:43 | 41.52181 | 13.07690 | 17328 ft | 319 kts | 277° |
| 2026-05-07 21:43 | 41.52532 | 13.04828 | 17167 ft | 308 kts | 277° |
| 2026-05-07 21:43 | 41.52871 | 13.02054 | 17041 ft | 298 kts | 277° |
| 2026-05-07 21:44 | 41.53200 | 12.99350 | 16876 ft | 294 kts | 277° |
| 2026-05-07 21:44 | 41.53526 | 12.96662 | 16501 ft | 294 kts | 277° |
| 2026-05-07 21:44 | 41.53888 | 12.93975 | 16152 ft | 295 kts | 282° |
| 2026-05-07 21:44 | 41.54672 | 12.91442 | 15851 ft | 297 kts | 301° |
| 2026-05-07 21:45 | 41.56064 | 12.89299 | 15759 ft | 315 kts | 314° |
| 2026-05-07 21:45 | 41.57683 | 12.87273 | 15678 ft | 321 kts | 316° |
| 2026-05-07 21:45 | 41.59325 | 12.85259 | 15427 ft | 321 kts | 316° |
| 2026-05-07 21:45 | 41.60960 | 12.83242 | 15132 ft | 319 kts | 315° |
| 2026-05-07 21:46 | 41.62582 | 12.81230 | 14915 ft | 318 kts | 315° |
| 2026-05-07 21:46 | 41.64203 | 12.79212 | 14718 ft | 317 kts | 315° |
| 2026-05-07 21:46 | 41.65816 | 12.77200 | 14529 ft | 317 kts | 315° |
| 2026-05-07 21:46 | 41.67419 | 12.75197 | 14331 ft | 315 kts | 315° |
| 2026-05-07 21:47 | 41.69020 | 12.73199 | 14139 ft | 314 kts | 315° |
| 2026-05-07 21:47 | 41.70592 | 12.71227 | 13964 ft | 312 kts | 315° |
| 2026-05-07 21:47 | 41.72190 | 12.69220 | 13751 ft | 310 kts | 315° |
| 2026-05-07 21:47 | 41.73742 | 12.67270 | 13560 ft | 309 kts | 315° |
| 2026-05-07 21:48 | 41.75310 | 12.65299 | 13361 ft | 309 kts | 315° |
| 2026-05-07 21:48 | 41.76875 | 12.63330 | 13180 ft | 308 kts | 315° |
| 2026-05-07 21:48 | 41.78432 | 12.61371 | 12986 ft | 307 kts | 315° |
| 2026-05-07 21:48 | 41.79986 | 12.59415 | 12798 ft | 306 kts | 315° |
| 2026-05-07 21:49 | 41.81529 | 12.57451 | 12617 ft | 305 kts | 314° |
| 2026-05-07 21:49 | 41.83023 | 12.55436 | 12423 ft | 305 kts | 313° |
| 2026-05-07 21:49 | 41.84507 | 12.53409 | 12242 ft | 304 kts | 313° |
| 2026-05-07 21:49 | 41.85986 | 12.51396 | 12068 ft | 303 kts | 313° |
| 2026-05-07 21:50 | 41.87448 | 12.49412 | 11911 ft | 293 kts | 313° |
| 2026-05-07 21:50 | 41.88859 | 12.47514 | 11747 ft | 282 kts | 314° |
| 2026-05-07 21:50 | 41.90436 | 12.45994 | 11564 ft | 279 kts | 334° |
| 2026-05-07 21:50 | 41.92262 | 12.45080 | 11174 ft | 281 kts | 341° |
| 2026-05-07 21:51 | 41.94165 | 12.44304 | 10486 ft | 291 kts | 342° |
| 2026-05-07 21:51 | 41.96146 | 12.43509 | 9767 ft | 302 kts | 342° |
| 2026-05-07 21:51 | 41.98183 | 12.42680 | 8965 ft | 310 kts | 342° |
| 2026-05-07 21:51 | 42.00264 | 12.41824 | 8197 ft | 316 kts | 342° |
| 2026-05-07 21:52 | 42.02381 | 12.40949 | 7426 ft | 320 kts | 342° |
| 2026-05-07 21:52 | 42.04519 | 12.40062 | 6712 ft | 324 kts | 342° |
| 2026-05-07 21:52 | 42.06683 | 12.39162 | 5958 ft | 326 kts | 343° |
| 2026-05-07 21:52 | 42.08847 | 12.38260 | 5205 ft | 326 kts | 343° |
| 2026-05-07 21:53 | 42.11006 | 12.37308 | 4457 ft | 327 kts | 339° |
| 2026-05-07 21:53 | 42.12946 | 12.35806 | 3714 ft | 327 kts | 321° |
| 2026-05-07 21:53 | 42.14328 | 12.33420 | 3222 ft | 322 kts | 297° |
| 2026-05-07 21:53 | 42.14873 | 12.30585 | 3041 ft | 306 kts | 275° |
| 2026-05-07 21:54 | 42.14855 | 12.27824 | 3021 ft | 284 kts | 269° |
| 2026-05-07 21:54 | 42.14620 | 12.25290 | 3016 ft | 264 kts | 253° |
| 2026-05-07 21:54 | 42.13766 | 12.23217 | 3027 ft | 246 kts | 232° |
| 2026-05-07 21:54 | 42.12666 | 12.21478 | 3020 ft | 243 kts | 228° |
| 2026-05-07 21:55 | 42.11531 | 12.19779 | 3010 ft | 244 kts | 228° |
| 2026-05-07 21:55 | 42.10772 | 12.18655 | 3134 ft | 245 kts | 228° |
| 2026-05-07 21:55 | 42.09568 | 12.17042 | 3129 ft | 245 kts | 213° |
| 2026-05-07 21:55 | 42.07973 | 12.16403 | 3160 ft | 240 kts | 176° |
| 2026-05-07 21:56 | 42.06352 | 12.16835 | 3166 ft | 237 kts | 158° |
| 2026-05-07 21:56 | 42.04810 | 12.17613 | 3171 ft | 237 kts | 156° |
| 2026-05-07 21:56 | 42.03243 | 12.18331 | 3182 ft | 238 kts | 160° |
| 2026-05-07 21:56 | 42.01661 | 12.18990 | 2991 ft | 236 kts | 160° |
| 2026-05-07 21:57 | 42.00145 | 12.19618 | 2999 ft | 219 kts | 160° |
| 2026-05-07 21:57 | 41.98739 | 12.20199 | 2898 ft | 207 kts | 159° |
| 2026-05-07 21:57 | 41.97376 | 12.20771 | 2662 ft | 202 kts | 159° |
| 2026-05-07 21:57 | 41.96043 | 12.21337 | 2364 ft | 200 kts | 159° |
| 2026-05-07 21:58 | 41.94728 | 12.21892 | 2082 ft | 196 kts | 160° |
| 2026-05-07 21:58 | 41.93435 | 12.22435 | 1840 ft | 192 kts | 159° |
| 2026-05-07 21:58 | 41.92183 | 12.22962 | 1584 ft | 183 kts | 159° |
| 2026-05-07 21:58 | 41.91013 | 12.23455 | 1336 ft | 170 kts | 159° |
| 2026-05-07 21:59 | 41.89922 | 12.23914 | 1111 ft | 158 kts | 160° |
| 2026-05-07 21:59 | 41.88918 | 12.24336 | 917 ft | 145 kts | 161° |
| 2026-05-07 21:59 | 41.87966 | 12.24737 | 734 ft | 143 kts | 160° |
| 2026-05-07 21:59 | 41.87021 | 12.25134 | 563 ft | 142 kts | 161° |
| 2026-05-07 22:00 | 41.86082 | 12.25528 | 372 ft | 141 kts | 162° |
| 2026-05-07 22:00 | 41.85150 | 12.25920 | 183 ft | 140 kts | 162° |
| 2026-05-07 22:00 | 41.84222 | 12.26304 | 44 ft | 138 kts | 163° |
| 2026-05-07 22:00 | 41.83337 | 12.26668 | 27 ft | 136 kts | 162° |
| 2026-05-07 22:01 | 41.82656 | 12.26962 | 28 ft | 78 kts | 162° |
| 2026-05-07 22:01 | 41.82217 | 12.27133 | 21 ft | 49 kts | 172° |
| 2026-05-07 22:01 | 41.81901 | 12.27091 | 25 ft | 38 kts | 192° |
| 2026-05-07 22:01 | 41.81700 | 12.27051 | 30 ft | 23 kts | 175° |
| 2026-05-07 22:02 | 41.81535 | 12.27103 | 27 ft | 25 kts | 159° |
| 2026-05-07 22:02 | 41.79915 | 12.24759 | 23 ft | 11 kts | 203° |
| 2026-05-07 22:04 | 41.87498 | 12.24934 | 650 ft | 143 kts | 162° |
| 2026-05-07 22:05 | 41.87369 | 12.24992 | 36 ft | 0 kts | 161° |
| 2026-05-07 22:05 | 41.87395 | 12.24978 | 649 ft | 142 kts | 162° |
| 2026-05-07 22:05 | 41.87515 | 12.25398 | 3071 ft | 416 kts | 9° |
| 2026-05-07 22:06 | 41.87808 | 12.25462 | 2629 ft | 33 kts | 25° |
| 2026-05-07 22:06 | 41.87948 | 12.25512 | 112 ft | 17 kts | 153° |